createdAt,value
2023-05-02T00:01:28.955Z,17.15
2023-05-02T00:03:58.211Z,18.40
2023-05-02T00:06:26.584Z,17.73
2023-05-02T00:08:54.470Z,17.65
2023-05-02T00:11:22.983Z,17.73
2023-05-02T00:13:50.774Z,16.65
2023-05-02T00:16:18.960Z,16.92
2023-05-02T00:18:46.881Z,16.70
2023-05-02T00:21:16.064Z,16.40
2023-05-02T00:23:43.843Z,16.50
2023-05-02T00:26:11.694Z,16.95
2023-05-02T00:28:40.337Z,15.80
2023-05-02T00:31:08.213Z,14.60
2023-05-02T00:33:35.928Z,15.23
2023-05-02T00:36:03.653Z,15.70
2023-05-02T00:38:32.738Z,15.30
2023-05-02T00:41:00.511Z,15.50
2023-05-02T00:43:31.653Z,14.75
2023-05-02T00:45:59.752Z,14.30
2023-05-02T00:48:27.999Z,14.38
2023-05-02T00:50:57.302Z,14.60
2023-05-02T00:53:25.066Z,13.48
2023-05-02T00:55:54.360Z,15.18
2023-05-02T00:58:22.128Z,13.15
2023-05-02T01:01:04.340Z,12.85
2023-05-02T01:03:53.154Z,13.40
2023-05-02T01:06:41.112Z,12.75
2023-05-02T01:09:27.448Z,12.32
2023-05-02T01:12:04.147Z,12.52
2023-05-02T01:14:35.808Z,12.05
2023-05-02T01:17:08.232Z,11.60
2023-05-02T01:19:37.659Z,11.10
2023-05-02T01:22:09.441Z,11.45
2023-05-02T01:24:43.918Z,10.75
2023-05-02T01:27:20.935Z,10.75
2023-05-02T01:29:52.402Z,10.15
2023-05-02T01:32:23.520Z,10.27
2023-05-02T01:34:54.281Z,10.23
2023-05-02T01:37:24.972Z,9.70
2023-05-02T01:39:55.323Z,8.43
2023-05-02T01:42:24.792Z,8.13
2023-05-02T01:44:56.379Z,8.38
2023-05-02T01:47:25.482Z,7.97
2023-05-02T01:49:53.660Z,8.00
2023-05-02T01:52:24.671Z,7.22
2023-05-02T01:54:54.945Z,7.30
2023-05-02T01:57:22.890Z,7.90
2023-05-02T01:59:53.767Z,6.97
2023-05-02T02:02:23.725Z,6.63
2023-05-02T02:04:54.427Z,6.55
2023-05-02T02:07:22.405Z,6.25
2023-05-02T02:09:50.597Z,5.78
2023-05-02T02:12:25.574Z,5.80
2023-05-02T02:14:58.790Z,6.03
2023-05-02T02:17:31.144Z,6.07
2023-05-02T02:20:04.422Z,5.28
2023-05-02T02:22:36.907Z,7.07
2023-05-02T02:25:06.712Z,6.03
2023-05-02T02:27:34.587Z,7.13
2023-05-02T02:30:04.664Z,6.80
2023-05-02T02:32:32.474Z,6.65
2023-05-02T02:35:00.872Z,7.50
2023-05-02T02:37:33.682Z,6.55
2023-05-02T02:40:09.319Z,7.90
2023-05-02T02:42:44.771Z,7.95
2023-05-02T02:45:26.199Z,7.35
2023-05-02T02:48:04.019Z,7.85
2023-05-02T02:50:34.072Z,8.68
2023-05-02T02:53:03.996Z,7.75
2023-05-02T02:55:41.654Z,8.02
2023-05-02T02:58:21.127Z,8.73
2023-05-02T03:00:50.848Z,7.82
2023-05-02T03:03:21.547Z,7.82
2023-05-02T03:05:50.170Z,6.95
2023-05-02T03:08:17.981Z,8.50
2023-05-02T03:10:45.676Z,8.30
2023-05-02T03:13:13.352Z,8.13
2023-05-02T03:16:20.522Z,8.25
2023-05-02T03:18:48.262Z,7.60
2023-05-02T03:21:15.974Z,7.65
2023-05-02T03:23:43.666Z,8.35
2023-05-02T03:26:11.736Z,7.00
2023-05-02T03:28:39.477Z,6.55
2023-05-02T03:31:08.564Z,7.18
2023-05-02T03:33:36.300Z,7.47
2023-05-02T03:36:04.112Z,6.43
2023-05-02T03:38:32.521Z,7.38
2023-05-02T03:41:00.264Z,7.68
2023-05-02T03:43:27.951Z,6.97
2023-05-02T03:45:55.687Z,6.72
2023-05-02T03:48:25.054Z,6.38
2023-05-02T03:50:52.784Z,6.20
2023-05-02T03:53:20.480Z,6.35
2023-05-02T03:55:48.204Z,6.55
2023-05-02T03:58:16.913Z,6.32
2023-05-02T04:00:44.646Z,5.60
2023-05-02T04:03:12.442Z,6.53
2023-05-02T04:05:41.526Z,5.85
2023-05-02T04:08:09.823Z,5.65
2023-05-02T04:10:37.581Z,6.45
2023-05-02T04:13:05.626Z,6.43
2023-05-02T04:15:33.478Z,5.70
2023-05-02T04:18:01.635Z,5.68
2023-05-02T04:20:30.668Z,5.30
2023-05-02T04:22:59.742Z,5.47
2023-05-02T04:25:27.461Z,4.95
2023-05-02T04:27:55.206Z,4.70
2023-05-02T04:30:22.956Z,4.68
2023-05-02T04:32:50.964Z,4.30
2023-05-02T04:35:18.890Z,4.22
2023-05-02T04:37:46.616Z,4.10
2023-05-02T04:40:16.111Z,3.92
2023-05-02T04:42:43.872Z,3.67
2023-05-02T04:45:11.825Z,3.35
2023-05-02T04:47:40.137Z,2.97
2023-05-02T04:50:09.396Z,3.30
2023-05-02T04:52:37.129Z,3.03
2023-05-02T04:55:05.510Z,3.58
2023-05-02T04:57:34.572Z,2.65
2023-05-02T05:00:02.499Z,2.25
2023-05-02T05:02:30.517Z,2.70
2023-05-02T05:04:58.457Z,3.33
2023-05-02T05:07:26.406Z,2.17
2023-05-02T05:09:54.131Z,2.10
2023-05-02T05:12:21.852Z,2.30
2023-05-02T05:14:51.006Z,1.77
2023-05-02T05:17:18.656Z,1.90
2023-05-02T05:19:46.413Z,1.83
2023-05-02T05:22:14.192Z,1.95
2023-05-02T05:24:41.912Z,2.13
2023-05-02T05:27:09.703Z,1.90
2023-05-02T05:29:37.398Z,1.40
2023-05-02T05:32:07.057Z,1.65
2023-05-02T05:34:34.836Z,1.55
2023-05-02T05:37:02.639Z,1.83
2023-05-02T05:39:30.742Z,1.45
2023-05-02T05:41:59.035Z,1.90
2023-05-02T05:44:26.758Z,1.42
2023-05-02T05:46:54.736Z,2.40
2023-05-02T05:49:24.300Z,1.63
2023-05-02T05:51:52.243Z,1.60
2023-05-02T05:54:19.954Z,1.52
2023-05-02T05:56:47.686Z,1.63
2023-05-02T05:59:15.584Z,2.05
2023-05-02T06:01:43.816Z,2.03
2023-05-02T06:04:11.713Z,1.52
2023-05-02T06:06:40.898Z,1.50
2023-05-02T06:09:09.171Z,1.52
2023-05-02T06:11:38.072Z,1.63
2023-05-02T06:14:05.752Z,1.60
2023-05-02T06:16:33.582Z,1.80
2023-05-02T06:19:01.454Z,1.20
2023-05-02T06:21:29.172Z,1.48
2023-05-02T06:23:58.283Z,1.35
2023-05-02T06:26:26.085Z,1.10
2023-05-02T06:28:55.648Z,1.60
2023-05-02T06:31:23.460Z,1.58
2023-05-02T06:33:52.256Z,1.52
2023-05-02T06:36:19.940Z,1.30
2023-05-02T06:38:47.648Z,1.45
2023-05-02T06:41:18.332Z,1.95
2023-05-02T06:43:46.244Z,1.48
2023-05-02T06:46:14.049Z,1.50
2023-05-02T06:48:41.833Z,1.75
2023-05-02T06:51:09.562Z,1.80
2023-05-02T06:53:37.241Z,1.75
2023-05-02T06:56:05.997Z,1.45
2023-05-02T06:58:35.141Z,2.00
2023-05-02T07:01:02.930Z,1.73
2023-05-02T07:03:30.897Z,1.30
2023-05-02T07:05:58.754Z,1.88
2023-05-02T07:08:26.550Z,2.25
2023-05-02T07:10:54.308Z,1.67
2023-05-02T07:13:22.046Z,2.45
2023-05-02T07:15:51.201Z,1.52
2023-05-02T07:18:18.984Z,2.58
2023-05-02T07:20:46.814Z,2.90
2023-05-02T07:23:14.613Z,1.88
2023-05-02T07:25:42.558Z,2.17
2023-05-02T07:28:10.356Z,2.20
2023-05-02T07:30:38.040Z,2.03
2023-05-02T07:33:07.553Z,1.88
2023-05-02T07:35:35.423Z,2.40
2023-05-02T07:38:03.198Z,2.72
2023-05-02T07:40:31.012Z,1.92
2023-05-02T07:42:59.337Z,4.30
2023-05-02T07:45:27.077Z,1.85
2023-05-02T07:47:54.835Z,1.80
2023-05-02T07:50:24.522Z,2.17
2023-05-02T07:52:52.379Z,2.20
2023-05-02T07:55:20.286Z,2.78
2023-05-02T07:57:48.050Z,2.97
2023-05-02T08:00:16.806Z,1.83
2023-05-02T08:02:45.451Z,2.42
2023-05-02T08:05:13.640Z,2.38
2023-05-02T08:07:42.876Z,1.90
2023-05-02T08:10:11.709Z,2.05
2023-05-02T08:12:40.283Z,2.40
2023-05-02T08:15:09.234Z,2.88
2023-05-02T08:17:37.151Z,1.90
2023-05-02T08:20:05.598Z,2.72
2023-05-02T08:22:33.344Z,2.35
2023-05-02T08:25:02.448Z,2.00
2023-05-02T08:27:30.253Z,1.83
2023-05-02T08:29:59.414Z,2.40
2023-05-02T08:32:30.059Z,2.50
2023-05-02T08:34:58.045Z,2.72
2023-05-02T08:37:25.866Z,3.00
2023-05-02T08:39:53.634Z,2.28
2023-05-02T08:42:23.496Z,3.25
2023-05-02T08:44:51.505Z,2.08
2023-05-02T08:47:21.709Z,2.80
2023-05-02T08:49:51.143Z,2.55
2023-05-02T08:52:21.375Z,2.63
2023-05-02T08:54:51.548Z,2.38
2023-05-02T08:57:19.312Z,2.72
2023-05-02T08:59:48.688Z,2.20
2023-05-02T09:02:28.744Z,2.17
2023-05-02T09:05:02.668Z,2.10
2023-05-02T09:07:30.812Z,2.58
2023-05-02T09:09:59.353Z,2.35
2023-05-02T09:12:27.678Z,2.08
2023-05-02T09:15:12.554Z,1.77
2023-05-02T09:17:44.583Z,1.85
2023-05-02T09:20:13.644Z,1.75
2023-05-02T09:22:50.064Z,2.00
2023-05-02T09:25:18.168Z,2.13
2023-05-02T09:27:53.708Z,2.40
2023-05-02T09:30:25.132Z,1.80
2023-05-02T09:32:55.413Z,2.25
2023-05-02T09:35:26.464Z,2.10
2023-05-02T09:37:55.362Z,1.52
2023-05-02T09:40:24.228Z,2.00
2023-05-02T09:42:52.506Z,1.92
2023-05-02T09:45:26.069Z,2.17
2023-05-02T09:47:54.694Z,2.22
2023-05-02T09:50:34.784Z,2.22
2023-05-02T09:53:04.434Z,1.95
2023-05-02T09:55:32.367Z,2.40
2023-05-02T09:58:00.891Z,1.85
2023-05-02T10:00:44.536Z,2.35
2023-05-02T10:03:16.365Z,2.10
2023-05-02T10:05:46.736Z,2.17
2023-05-02T10:08:15.423Z,1.83
2023-05-02T10:10:48.441Z,1.75
2023-05-02T10:13:20.737Z,1.85
2023-05-02T10:15:55.112Z,2.60
2023-05-02T10:18:28.762Z,1.90
2023-05-02T10:21:00.670Z,2.45
2023-05-02T10:23:29.707Z,2.00
2023-05-02T10:26:00.369Z,1.83
2023-05-02T10:28:28.915Z,1.83
2023-05-02T10:31:01.316Z,2.42
2023-05-02T10:33:31.502Z,2.00
2023-05-02T10:35:59.610Z,3.13
2023-05-02T10:38:27.739Z,2.13
2023-05-02T10:40:59.744Z,1.85
2023-05-02T10:43:35.048Z,2.03
2023-05-02T10:46:04.988Z,2.22
2023-05-02T10:48:32.838Z,2.00
2023-05-02T10:51:01.845Z,2.08
2023-05-02T10:53:31.896Z,1.83
2023-05-02T10:56:18.082Z,2.25
2023-05-02T10:58:47.145Z,1.70
2023-05-02T11:01:43.313Z,2.20
2023-05-02T11:04:11.888Z,2.17
2023-05-02T11:07:13.103Z,2.38
2023-05-02T11:09:40.843Z,2.00
2023-05-02T11:12:08.635Z,3.08
2023-05-02T11:14:50.775Z,2.13
2023-05-02T11:17:21.020Z,2.22
2023-05-02T11:20:27.633Z,2.08
2023-05-02T11:23:00.824Z,1.98
2023-05-02T11:25:40.093Z,2.22
2023-05-02T11:28:10.360Z,1.92
2023-05-02T11:30:48.179Z,1.83
2023-05-02T11:33:20.057Z,2.10
2023-05-02T11:35:49.349Z,2.40
2023-05-02T11:38:19.968Z,2.20
2023-05-02T11:40:52.238Z,2.28
2023-05-02T11:43:22.271Z,1.88
2023-05-02T11:45:50.444Z,2.08
2023-05-02T11:48:22.145Z,2.13
2023-05-02T11:50:51.235Z,1.70
2023-05-02T11:53:23.343Z,1.88
2023-05-02T11:55:52.321Z,2.00
2023-05-02T11:58:22.620Z,2.25
2023-05-02T12:00:51.659Z,2.38
2023-05-02T12:03:29.824Z,1.83
2023-05-02T12:05:58.668Z,2.60
2023-05-02T12:08:28.122Z,2.10
2023-05-02T12:10:57.410Z,2.50
2023-05-02T12:13:26.819Z,2.67
2023-05-02T12:15:55.944Z,1.88
2023-05-02T12:18:27.517Z,2.33
2023-05-02T12:20:57.171Z,2.08
2023-05-02T12:23:27.315Z,2.60
2023-05-02T12:25:55.110Z,1.95
2023-05-02T12:28:24.062Z,1.98
2023-05-02T12:30:52.715Z,2.20
2023-05-02T12:33:20.750Z,2.28
2023-05-02T12:35:50.405Z,2.25
2023-05-02T12:38:20.604Z,1.77
2023-05-02T12:40:50.110Z,1.67
2023-05-02T12:43:17.947Z,2.30
2023-05-02T12:45:45.923Z,1.70
2023-05-02T12:48:21.890Z,1.98
2023-05-02T12:50:51.333Z,2.00
2023-05-02T12:53:19.314Z,1.88
2023-05-02T12:55:47.813Z,2.08
2023-05-02T12:58:15.508Z,3.00
2023-05-02T13:00:45.594Z,2.13
2023-05-02T13:03:15.013Z,2.38
2023-05-02T13:05:42.849Z,2.17
2023-05-02T13:08:11.937Z,2.10
2023-05-02T13:10:39.648Z,1.73
2023-05-02T13:13:07.822Z,1.73
2023-05-02T13:15:35.543Z,1.95
2023-05-02T13:18:03.647Z,1.50
2023-05-02T13:20:31.470Z,1.50
2023-05-02T13:22:59.229Z,1.75
2023-05-02T13:25:28.395Z,2.05
2023-05-02T13:27:56.105Z,1.98
2023-05-02T13:30:23.837Z,1.83
2023-05-02T13:32:51.686Z,1.70
2023-05-02T13:35:19.671Z,2.10
2023-05-02T13:37:47.968Z,2.05
2023-05-02T13:40:15.833Z,2.10
2023-05-02T13:42:44.890Z,2.08
2023-05-02T13:45:12.992Z,2.10
2023-05-02T13:47:41.552Z,1.83
2023-05-02T13:50:10.105Z,2.45
2023-05-02T13:52:37.857Z,2.10
2023-05-02T13:55:06.312Z,1.77
2023-05-02T13:57:34.099Z,2.00
2023-05-02T14:00:04.877Z,2.10
2023-05-02T14:02:32.909Z,2.10
2023-05-02T14:05:00.766Z,2.30
2023-05-02T14:07:28.564Z,1.60
2023-05-02T14:09:56.278Z,1.70
2023-05-02T14:12:24.021Z,1.83
2023-05-02T14:14:51.889Z,1.95
2023-05-02T14:17:21.401Z,1.85
2023-05-02T14:19:49.141Z,1.90
2023-05-02T14:22:16.915Z,1.50
2023-05-02T14:24:44.640Z,1.70
2023-05-02T14:27:17.844Z,1.80
2023-05-02T14:29:46.352Z,1.58
2023-05-02T14:32:14.361Z,1.98
2023-05-02T14:34:43.552Z,1.83
2023-05-02T14:37:11.346Z,1.67
2023-05-02T14:39:40.197Z,1.58
2023-05-02T14:42:07.975Z,1.77
2023-05-02T14:44:35.691Z,2.05
2023-05-02T14:47:03.631Z,1.80
2023-05-02T14:49:31.377Z,2.15
2023-05-02T14:52:00.443Z,1.65
2023-05-02T14:54:28.484Z,1.98
2023-05-02T14:56:56.898Z,1.83
2023-05-02T14:59:24.988Z,2.05
2023-05-02T15:01:52.925Z,1.98
2023-05-02T15:04:20.876Z,2.10
2023-05-02T15:06:49.067Z,1.85
2023-05-02T15:09:19.055Z,2.03
2023-05-02T15:11:46.789Z,2.33
2023-05-02T15:14:14.524Z,2.20
2023-05-02T15:16:42.373Z,1.90
2023-05-02T15:19:10.307Z,2.03
2023-05-02T15:21:38.063Z,1.83
2023-05-02T15:24:06.399Z,2.17
2023-05-02T15:26:35.805Z,1.80
2023-05-02T15:29:03.568Z,2.55
2023-05-02T15:31:31.571Z,2.22
2023-05-02T15:33:59.319Z,2.13
2023-05-02T15:36:27.968Z,1.83
2023-05-02T15:38:55.724Z,3.28
2023-05-02T15:41:25.726Z,1.92
2023-05-02T15:43:54.870Z,1.80
2023-05-02T15:46:22.725Z,2.05
2023-05-02T15:48:50.802Z,2.63
2023-05-02T15:51:18.644Z,2.25
2023-05-02T15:53:49.805Z,2.10
2023-05-02T15:56:17.545Z,2.22
2023-05-02T15:58:45.265Z,2.42
2023-05-02T16:01:14.315Z,2.58
2023-05-02T16:03:42.283Z,1.83
2023-05-02T16:06:10.382Z,2.60
2023-05-02T16:08:38.184Z,2.22
2023-05-02T16:11:05.926Z,2.88
2023-05-02T16:13:33.694Z,3.17
2023-05-02T16:16:01.526Z,2.10
2023-05-02T16:18:31.212Z,2.78
2023-05-02T16:20:59.473Z,2.40
2023-05-02T16:23:27.473Z,2.97
2023-05-02T16:25:58.736Z,2.45
2023-05-02T16:28:26.499Z,2.35
2023-05-02T16:30:54.375Z,2.58
2023-05-02T16:33:22.660Z,2.50
2023-05-02T16:36:01.207Z,2.85
2023-05-02T16:38:28.961Z,2.55
2023-05-02T16:40:57.369Z,2.58
2023-05-02T16:43:25.380Z,2.90
2023-05-02T16:46:01.076Z,2.92
2023-05-02T16:48:29.083Z,3.27
2023-05-02T16:50:58.295Z,2.60
2023-05-02T16:53:26.629Z,2.53
2023-05-02T16:55:55.248Z,3.45
2023-05-02T16:58:25.059Z,3.72
2023-05-02T17:00:52.817Z,2.67
2023-05-02T17:03:20.838Z,3.15
2023-05-02T17:05:48.626Z,2.53
2023-05-02T17:08:17.906Z,2.55
2023-05-02T17:10:49.500Z,3.20
2023-05-02T17:13:17.275Z,2.40
2023-05-02T17:15:45.105Z,2.80
2023-05-02T17:18:12.869Z,2.50
2023-05-02T17:20:41.150Z,2.20
2023-05-02T17:23:08.983Z,2.45
2023-05-02T17:25:38.293Z,2.60
2023-05-02T17:28:06.052Z,2.33
2023-05-02T17:30:33.974Z,3.15
2023-05-02T17:33:01.707Z,2.72
2023-05-02T17:35:29.582Z,2.70
2023-05-02T17:37:57.298Z,2.85
2023-05-02T17:40:25.480Z,2.33
2023-05-02T17:42:55.369Z,2.63
2023-05-02T17:45:23.216Z,2.20
2023-05-02T17:47:51.093Z,3.15
2023-05-02T17:50:18.874Z,3.00
2023-05-02T17:52:46.733Z,2.40
2023-05-02T17:55:14.605Z,2.78
2023-05-02T17:57:42.390Z,2.38
2023-05-02T18:00:12.773Z,2.25
2023-05-02T18:02:40.805Z,2.17
2023-05-02T18:05:09.595Z,2.42
2023-05-02T18:07:37.372Z,1.98
2023-05-02T18:10:06.718Z,2.30
2023-05-02T18:12:34.555Z,2.33
2023-05-02T18:15:05.420Z,3.72
2023-05-02T18:17:35.030Z,2.60
2023-05-02T18:20:04.344Z,2.22
2023-05-02T18:22:33.563Z,2.40
2023-05-02T18:25:01.868Z,2.85
2023-05-02T18:27:29.816Z,2.15
2023-05-02T18:29:57.616Z,2.20
2023-05-02T18:32:26.070Z,2.38
2023-05-02T18:34:55.325Z,1.95
2023-05-02T18:37:30.889Z,2.15
2023-05-02T18:39:58.774Z,2.50
2023-05-02T18:42:26.566Z,2.13
2023-05-02T18:44:54.290Z,2.17
2023-05-02T18:47:24.433Z,2.00
2023-05-02T18:49:56.260Z,2.67
2023-05-02T18:52:25.730Z,1.98
2023-05-02T18:54:53.508Z,2.10
2023-05-02T18:57:21.559Z,2.03
2023-05-02T18:59:49.276Z,1.85
2023-05-02T19:02:17.005Z,2.50
2023-05-02T19:04:44.864Z,2.13
2023-05-02T19:07:12.607Z,1.60
2023-05-02T19:09:42.109Z,2.20
2023-05-02T19:12:09.891Z,2.70
2023-05-02T19:14:39.577Z,1.77
2023-05-02T19:17:07.348Z,2.47
2023-05-02T19:19:35.276Z,2.47
2023-05-02T19:22:03.130Z,1.90
2023-05-02T19:24:30.893Z,1.98
2023-05-02T19:27:00.456Z,1.75
2023-05-02T19:29:28.369Z,1.98
2023-05-02T19:31:56.078Z,1.70
2023-05-02T19:34:23.892Z,1.60
2023-05-02T19:36:51.571Z,2.13
2023-05-02T19:39:19.265Z,2.50
2023-05-02T19:41:48.088Z,1.92
2023-05-02T19:44:18.079Z,2.53
2023-05-02T19:46:46.154Z,2.50
2023-05-02T19:49:13.855Z,2.42
2023-05-02T19:51:42.015Z,2.25
2023-05-02T19:54:09.736Z,2.00
2023-05-02T19:56:37.415Z,1.75
2023-05-02T19:59:05.086Z,2.33
2023-05-02T20:01:34.238Z,2.70
2023-05-02T20:04:02.172Z,1.73
2023-05-02T20:06:31.571Z,1.70
2023-05-02T20:08:59.338Z,2.45
2023-05-02T20:11:27.157Z,1.70
2023-05-02T20:13:55.380Z,2.33
2023-05-02T20:16:23.179Z,1.98
2023-05-02T20:18:52.894Z,2.13
2023-05-02T20:21:20.792Z,2.33
2023-05-02T20:23:48.481Z,2.35
2023-05-02T20:26:17.838Z,2.00
2023-05-02T20:28:45.566Z,2.38
2023-05-02T20:31:13.349Z,2.10
2023-05-02T20:33:45.426Z,2.40
2023-05-02T20:36:15.789Z,1.92
2023-05-02T20:38:44.557Z,2.40
2023-05-02T20:41:14.056Z,2.33
2023-05-02T20:43:44.547Z,2.17
2023-05-02T20:46:12.970Z,2.53
2023-05-02T20:48:40.750Z,2.08
2023-05-02T20:51:08.734Z,1.83
2023-05-02T20:53:38.190Z,2.38
2023-05-02T20:56:08.810Z,2.40
2023-05-02T20:58:36.483Z,2.17
2023-05-02T21:01:04.278Z,1.73
2023-05-02T21:03:32.192Z,1.73
2023-05-02T21:06:00.433Z,2.35
2023-05-02T21:08:28.256Z,1.70
2023-05-02T21:10:57.308Z,1.85
2023-05-02T21:13:25.026Z,2.00
2023-05-02T21:15:52.800Z,2.10
2023-05-02T21:18:21.700Z,1.80
2023-05-02T21:20:49.889Z,2.00
2023-05-02T21:23:17.622Z,2.05
2023-05-02T21:25:45.388Z,1.95
2023-05-02T21:28:14.586Z,2.10
2023-05-02T21:30:42.368Z,1.85
2023-05-02T21:33:10.482Z,1.70
2023-05-02T21:35:38.176Z,2.03
2023-05-02T21:38:05.853Z,1.95
2023-05-02T21:40:35.477Z,1.60
2023-05-02T21:43:03.224Z,1.70
2023-05-02T21:45:32.755Z,1.77
2023-05-02T21:48:01.306Z,1.92
2023-05-02T21:50:29.427Z,2.13
2023-05-02T21:52:57.162Z,2.05
2023-05-02T21:55:24.965Z,1.52
2023-05-02T21:57:52.655Z,1.90
2023-05-02T22:00:20.621Z,1.73
2023-05-02T22:02:49.751Z,1.70
2023-05-02T22:05:18.041Z,1.98
2023-05-02T22:07:47.628Z,2.15
2023-05-02T22:10:15.382Z,2.00
2023-05-02T22:12:43.076Z,2.15
2023-05-02T22:15:12.871Z,1.90
2023-05-02T22:17:43.253Z,2.25
2023-05-02T22:20:14.207Z,1.90
2023-05-02T22:22:42.154Z,1.90
2023-05-02T22:25:10.277Z,1.98
2023-05-02T22:27:38.010Z,1.83
2023-05-02T22:30:07.439Z,2.35
2023-05-02T22:32:35.210Z,2.10
2023-05-02T22:35:03.446Z,2.25
2023-05-02T22:37:32.535Z,1.77
2023-05-02T22:40:00.601Z,1.38
2023-05-02T22:42:28.518Z,1.77
2023-05-02T22:44:56.189Z,1.88
2023-05-02T22:47:23.934Z,1.83
2023-05-02T22:49:52.609Z,1.60
2023-05-02T22:52:20.863Z,1.80
2023-05-02T22:54:50.070Z,2.28
2023-05-02T22:57:17.754Z,1.48
2023-05-02T22:59:45.524Z,2.08
2023-05-02T23:02:13.405Z,1.63
2023-05-02T23:04:41.298Z,1.30
2023-05-02T23:07:08.996Z,1.63
2023-05-02T23:09:36.839Z,2.22
2023-05-02T23:12:06.655Z,1.80
2023-05-02T23:14:34.378Z,1.70
2023-05-02T23:17:02.487Z,1.70
2023-05-02T23:19:30.918Z,2.25
2023-05-02T23:21:59.320Z,2.20
2023-05-02T23:24:27.955Z,1.80
2023-05-02T23:26:55.795Z,1.40
2023-05-02T23:29:24.984Z,1.92
2023-05-02T23:31:54.320Z,1.88
2023-05-02T23:34:22.784Z,1.80
2023-05-02T23:36:52.624Z,1.52
2023-05-02T23:39:20.435Z,2.63
2023-05-02T23:41:48.301Z,1.42
2023-05-02T23:44:16.025Z,1.83
2023-05-02T23:46:45.141Z,2.15
2023-05-02T23:49:12.945Z,1.63
2023-05-02T23:51:40.628Z,1.40
2023-05-02T23:54:08.625Z,2.42
2023-05-02T23:56:36.330Z,2.00
2023-05-02T23:59:04.071Z,1.98
